»·PEaware :: DLH337 KLAX-EDDF

DLH337 :: KLAX-EDDF

FLIGHT INFORMATION

Flight Status: Arrived
Operator:
Lufthansa
More flights by this operator :: More flights under this callsign
Pilot: Benjamin R. (11326)
Aircraft: Boeing 747-8
(B748)
More flights by this aircraft type
Origin: KLAX Los Angeles Intl
United States
Destination: EDDF Frankfurt/Main
Germany
More flights between these airports :: More routes between these airports
Route: +LOOP8 DAG ILC TCH J713 BPI ISN J549 YBR SCAG YFB 6560N 6550N 6540N 6430N 6220N BALIX UP59 NEXUS UN96 ROKAN UM982 TOPPA UL74 MONIL UP62 PAM UZ738 MISGO Z732 DIXAT T149 LIPMI T150 ROLIS
File this flight plan on PilotEdge
Remarks: HEAVY
Altitude:
(Current/Filed)
29,000ft
Speed:
(Current/Filed)
350kts
Departed: 14-May-16 01:54 PM
Arrived: 15-May-16 01:11 AM
Distance/Time
Traveled:
5029nm/11:17
Distance/Time
To Go:
Arrived

Flight Plot

Page will automatically refresh every two minutes.

Flight plan parsing failed; only flown route is shown


Map Options




Map Legend


Flown Route
Filed Route
Departure Airport
Arrival Airport
Navaid (VOR, NDB)
Fix

Horizontal Profiles

Position Reports

Time Latitude Longitude Heading Altitude Ground
Speed
14-May-16 13:22 33.942618 -118.411070 82 140ft 0kts
14-May-16 13:23 33.942618 -118.411070 82 140ft 0kts
14-May-16 13:24 33.942618 -118.411070 82 140ft 0kts
14-May-16 13:25 33.942618 -118.411070 82 140ft 0kts
14-May-16 13:26 33.942618 -118.411070 82 140ft 0kts
14-May-16 13:27 33.942618 -118.411070 82 140ft 0kts
14-May-16 13:28 33.942618 -118.411070 82 140ft 0kts
14-May-16 13:29 33.942618 -118.411070 82 140ft 0kts
14-May-16 13:30 33.942618 -118.411070 82 140ft 0kts
14-May-16 13:31 33.942618 -118.411070 82 140ft 0kts
14-May-16 13:32 33.942618 -118.411070 82 140ft 0kts
14-May-16 13:33 33.942575 -118.411459 82 140ft 0kts
14-May-16 13:34 33.942527 -118.411974 95 140ft 0kts
14-May-16 13:35 33.942665 -118.412321 133 140ft 0kts
14-May-16 13:36 33.942665 -118.412321 133 140ft 0kts
14-May-16 13:37 33.942665 -118.412321 133 140ft 0kts
14-May-16 13:38 33.942665 -118.412321 133 140ft 0kts
14-May-16 13:39 33.942665 -118.412321 133 140ft 0kts
14-May-16 13:40 33.942593 -118.412232 136 140ft 2kts
14-May-16 13:41 33.940301 -118.411804 171 140ft 17kts
14-May-16 13:42 33.938793 -118.407934 83 140ft 19kts
14-May-16 13:43 33.939386 -118.402219 82 140ft 18kts
14-May-16 13:44 33.939875 -118.397422 83 140ft 10kts
14-May-16 13:45 33.940113 -118.395009 83 140ft 6kts
14-May-16 13:46 33.940534 -118.390698 87 140ft 17kts
14-May-16 13:47 33.941083 -118.384653 82 140ft 12kts
14-May-16 13:48 33.940742 -118.380945 87 140ft 4kts
14-May-16 13:49 33.940743 -118.380929 89 140ft 0kts
14-May-16 13:50 33.940743 -118.380928 89 140ft 0kts
14-May-16 13:51 33.940429 -118.380274 160 140ft 4kts
14-May-16 13:52 33.939703 -118.381290 265 140ft 1kts
14-May-16 13:53 33.936431 -118.414071 263 306ft 185kts
14-May-16 13:54 33.929197 -118.469456 250 2045ft 175kts
14-May-16 13:55 33.912482 -118.533782 253 2149ft 240kts
14-May-16 13:56 33.895411 -118.616661 257 4121ft 258kts
14-May-16 13:57 33.879992 -118.701812 256 4991ft 261kts
14-May-16 13:58 33.824893 -118.716028 122 6038ft 281kts
14-May-16 13:59 33.843371 -118.627528 58 7913ft 296kts
14-May-16 14:00 33.885231 -118.540495 61 9935ft 307kts
14-May-16 14:01 33.927021 -118.446362 61 11608ft 332kts
14-May-16 14:02 33.974405 -118.358334 54 13550ft 343kts
14-May-16 14:03 34.024315 -118.272026 54 15336ft 354kts
14-May-16 14:04 34.077035 -118.178550 54 17124ft 364kts
14-May-16 14:05 34.133755 -118.077942 54 18839ft 373kts
14-May-16 14:06 34.190516 -117.976970 54 20349ft 382kts
14-May-16 14:07 34.249589 -117.871417 54 21813ft 389kts
14-May-16 14:08 34.310520 -117.762683 54 23093ft 398kts
14-May-16 14:09 34.373229 -117.650296 54 24152ft 410kts
14-May-16 14:10 34.437429 -117.534717 54 25128ft 420kts
14-May-16 14:11 34.502552 -117.417083 54 26121ft 426kts
14-May-16 14:12 34.568739 -117.297381 53 27036ft 432kts
14-May-16 14:13 34.636619 -117.176255 53 27886ft 438kts
14-May-16 14:14 34.704658 -117.052706 54 28686ft 443kts
14-May-16 14:15 34.773933 -116.925740 54 28961ft 464kts
14-May-16 14:16 34.847057 -116.791486 54 28947ft 494kts
14-May-16 14:17 34.924902 -116.647960 55 28947ft 526kts
14-May-16 14:18 35.029341 -116.522656 28 28951ft 536kts
14-May-16 14:19 35.162970 -116.444597 21 28953ft 540kts
14-May-16 14:20 35.299847 -116.364714 24 28954ft 545kts
14-May-16 14:21 35.430012 -116.280650 25 28944ft 516kts
14-May-16 14:22 35.523767 -116.166537 62 28944ft 451kts
14-May-16 14:23 35.576847 -116.036438 96 29008ft 446kts
14-May-16 14:24 35.611632 -115.891282 50 28982ft 464kts
14-May-16 14:25 35.724465 -115.825141 5 28963ft 469kts
14-May-16 14:26 35.857542 -115.805688 7 28950ft 498kts
14-May-16 14:27 35.969586 -115.761105 24 28929ft 520kts
14-May-16 14:28 36.113194 -115.651189 32 28914ft 522kts
14-May-16 14:29 36.208888 -115.572329 31 28895ft 523kts
14-May-16 14:30 36.331207 -115.475857 30 28877ft 523kts
14-May-16 14:31 36.455092 -115.379221 30 28889ft 522kts
14-May-16 14:32 36.577373 -115.283055 30 28882ft 523kts
14-May-16 14:33 36.700151 -115.186975 30 28879ft 523kts
14-May-16 14:34 36.823161 -115.089668 30 28874ft 522kts
14-May-16 14:35 36.945117 -114.992544 30 28850ft 522kts
14-May-16 14:36 37.067366 -114.895058 30 28837ft 522kts
14-May-16 14:37 37.192090 -114.794768 31 28841ft 522kts
14-May-16 14:38 37.313826 -114.696481 31 28845ft 522kts
14-May-16 14:39 37.435717 -114.597793 30 28911ft 522kts
14-May-16 14:40 37.557874 -114.499802 30 28918ft 522kts
14-May-16 14:41 37.680674 -114.401271 30 28917ft 530kts
14-May-16 14:42 37.804821 -114.300059 30 28917ft 535kts
14-May-16 14:43 37.929368 -114.197424 30 28919ft 535kts
14-May-16 14:44 38.053323 -114.094939 30 28981ft 534kts
14-May-16 14:45 38.177430 -113.992066 30 29043ft 534kts
14-May-16 14:46 38.302604 -113.887889 31 29011ft 535kts
14-May-16 14:47 38.426316 -113.784303 31 29009ft 535kts
14-May-16 14:48 38.549995 -113.680316 31 29010ft 534kts
14-May-16 14:49 38.673627 -113.577107 31 29006ft 535kts
14-May-16 14:50 38.797407 -113.472933 31 29007ft 531kts
14-May-16 14:51 38.919595 -113.368911 31 29009ft 526kts
14-May-16 14:52 39.041615 -113.264658 31 29011ft 534kts
14-May-16 14:53 39.164093 -113.159637 31 28975ft 525kts
14-May-16 14:54 39.284743 -113.055648 31 28958ft 526kts
14-May-16 14:55 39.406787 -112.949817 31 28959ft 526kts
14-May-16 14:56 39.514446 -112.856346 31 28953ft 518kts
14-May-16 14:57 39.632794 -112.753693 31 28952ft 518kts
14-May-16 14:58 39.751647 -112.650477 31 28952ft 518kts
14-May-16 14:59 39.870684 -112.545914 31 28953ft 518kts
14-May-16 15:00 39.989590 -112.440842 31 28938ft 518kts
14-May-16 15:01 40.118467 -112.326513 31 28911ft 518kts
14-May-16 15:02 40.237022 -112.220893 31 28929ft 518kts
14-May-16 15:03 40.355871 -112.114549 31 28949ft 518kts
14-May-16 15:04 40.456970 -112.023723 31 28933ft 518kts
14-May-16 15:05 40.573196 -111.918930 31 28929ft 518kts
14-May-16 15:06 40.689731 -111.814530 31 28906ft 519kts
14-May-16 15:07 40.807354 -111.707973 32 28906ft 519kts
14-May-16 15:08 40.925642 -111.599802 32 28932ft 518kts
14-May-16 15:09 41.043544 -111.491508 32 29008ft 516kts
14-May-16 15:10 41.160809 -111.383388 32 29083ft 514kts
14-May-16 15:11 41.277559 -111.275276 32 29111ft 514kts
14-May-16 15:12 41.394861 -111.166162 32 29112ft 514kts
14-May-16 15:13 41.511688 -111.056991 32 29113ft 514kts
14-May-16 15:14 41.628027 -110.948403 31 29113ft 514kts
14-May-16 15:15 41.743980 -110.840066 32 29122ft 513kts
14-May-16 15:16 41.861299 -110.729127 32 29126ft 512kts
14-May-16 15:17 41.976888 -110.619052 32 29127ft 510kts
14-May-16 15:18 42.092419 -110.508607 32 29127ft 510kts
14-May-16 15:19 42.207537 -110.398083 32 29128ft 510kts
14-May-16 15:20 42.322488 -110.287200 32 29135ft 509kts
14-May-16 15:21 42.437459 -110.175782 32 29139ft 507kts
14-May-16 15:22 42.550910 -110.065308 31 29138ft 502kts
14-May-16 15:23 42.663364 -109.956404 30 29142ft 500kts
14-May-16 15:24 42.775342 -109.847110 31 29136ft 501kts
14-May-16 15:25 42.888161 -109.735891 31 29135ft 501kts
14-May-16 15:26 43.000203 -109.624767 31 29136ft 501kts
14-May-16 15:27 43.112370 -109.513001 31 29161ft 496kts
14-May-16 15:28 43.222680 -109.402577 31 29209ft 490kts
14-May-16 15:29 43.328001 -109.296777 31 29192ft 489kts
14-May-16 15:30 43.437393 -109.186364 31 29193ft 489kts
14-May-16 15:31 43.546573 -109.075640 31 29205ft 490kts
14-May-16 15:32 43.655649 -108.965499 31 29203ft 489kts
14-May-16 15:33 43.763114 -108.856210 32 29215ft 489kts
14-May-16 15:34 43.871891 -108.744533 32 29236ft 487kts
14-May-16 15:35 43.980186 -108.632651 32 29231ft 488kts
14-May-16 15:36 44.088976 -108.519724 32 29220ft 490kts
14-May-16 15:37 44.197605 -108.406421 32 29212ft 489kts
14-May-16 15:38 44.305182 -108.293593 30 29211ft 480kts
14-May-16 15:39 44.411187 -108.182046 30 29210ft 478kts
14-May-16 15:40 44.517065 -108.070167 30 29209ft 478kts
14-May-16 15:41 44.622404 -107.958892 30 29217ft 478kts
14-May-16 15:42 44.727654 -107.847545 31 29210ft 479kts
14-May-16 15:43 44.833867 -107.733971 31 29212ft 479kts
14-May-16 15:44 44.939286 -107.620345 31 29242ft 479kts
14-May-16 15:45 45.044587 -107.506283 31 29272ft 478kts
14-May-16 15:46 45.149737 -107.391927 31 29274ft 479kts
14-May-16 15:47 45.254900 -107.276963 31 29274ft 478kts
14-May-16 15:48 45.342154 -107.181137 30 29274ft 476kts
14-May-16 15:49 45.462156 -107.048528 29 29271ft 459kts
14-May-16 15:50 45.545648 -106.956092 28 29272ft 458kts
14-May-16 15:51 45.647174 -106.844348 29 29277ft 459kts
14-May-16 15:52 45.747821 -106.732698 29 29280ft 459kts
14-May-16 15:53 45.847966 -106.620250 29 29298ft 459kts
14-May-16 15:54 45.948115 -106.507143 29 29302ft 459kts
14-May-16 15:55 46.048165 -106.393658 29 29302ft 459kts
14-May-16 15:56 46.147986 -106.279908 29 29301ft 459kts
14-May-16 15:57 46.247540 -106.165921 29 29301ft 459kts
14-May-16 15:58 46.349001 -106.049188 29 29301ft 459kts
14-May-16 15:59 46.448516 -105.934134 29 29300ft 459kts
14-May-16 16:00 46.547740 -105.819046 30 29291ft 460kts
14-May-16 16:01 46.647215 -105.704174 30 29305ft 460kts
14-May-16 16:02 46.746779 -105.588081 30 29304ft 460kts
14-May-16 16:03 46.846258 -105.470822 30 29304ft 460kts
14-May-16 16:04 46.945062 -105.353709 30 29304ft 459kts
14-May-16 16:05 47.043898 -105.236056 30 29303ft 459kts
14-May-16 16:06 47.143192 -105.117285 30 29303ft 459kts
14-May-16 16:07 47.242019 -104.998474 30 29303ft 459kts
14-May-16 16:08 47.340274 -104.879789 30 29294ft 460kts
14-May-16 16:09 47.438672 -104.760673 30 29293ft 460kts
14-May-16 16:10 47.537223 -104.640544 31 29292ft 460kts
14-May-16 16:11 47.634519 -104.522014 30 29279ft 452kts
14-May-16 16:12 47.730437 -104.404406 30 29271ft 443kts
14-May-16 16:13 47.824643 -104.287893 30 29270ft 443kts
14-May-16 16:14 47.918941 -104.170593 30 29269ft 443kts
14-May-16 16:15 48.013136 -104.052810 30 29265ft 444kts
14-May-16 16:16 48.107398 -103.934407 30 29259ft 445kts
14-May-16 16:17 48.201711 -103.815690 30 29249ft 446kts
14-May-16 16:18 48.290654 -103.683691 43 29253ft 464kts
14-May-16 16:19 48.362677 -103.520791 47 29249ft 470kts
14-May-16 16:20 48.434348 -103.358025 45 29249ft 468kts
14-May-16 16:21 48.507831 -103.197179 45 29245ft 467kts
14-May-16 16:22 48.581138 -103.037151 45 29235ft 466kts
14-May-16 16:23 48.654701 -102.876993 48 29223ft 468kts
14-May-16 16:24 48.727846 -102.715779 48 29222ft 468kts
14-May-16 16:25 48.800798 -102.552744 48 29222ft 469kts
14-May-16 16:26 48.873371 -102.389158 48 29222ft 469kts
14-May-16 16:27 48.945874 -102.224776 48 29221ft 469kts
14-May-16 16:28 49.005766 -102.088232 48 29197ft 467kts
14-May-16 16:29 49.086700 -101.902660 48 29167ft 468kts
14-May-16 16:30 49.146508 -101.765550 49 29161ft 468kts
14-May-16 16:31 49.218234 -101.599901 49 29161ft 469kts
14-May-16 16:32 49.289539 -101.433483 49 29161ft 469kts
14-May-16 16:33 49.362417 -101.262213 49 29160ft 469kts
14-May-16 16:34 49.433340 -101.094540 49 29160ft 469kts
14-May-16 16:35 49.503924 -100.926610 49 29160ft 467kts
14-May-16 16:36 49.576942 -100.753332 49 29168ft 467kts
14-May-16 16:37 49.647628 -100.586499 49 29169ft 467kts
14-May-16 16:38 49.717407 -100.417571 50 29169ft 468kts
14-May-16 16:39 49.786889 -100.247658 50 29169ft 468kts
14-May-16 16:40 49.855934 -100.078150 50 29168ft 468kts
14-May-16 16:41 49.929652 -99.913958 37 29176ft 455kts
14-May-16 16:42 50.026920 -99.791675 29 29163ft 447kts
14-May-16 16:43 50.125749 -99.675271 31 29162ft 449kts
14-May-16 16:44 50.223280 -99.553352 32 29161ft 450kts
14-May-16 16:45 50.320011 -99.430202 32 29160ft 450kts
14-May-16 16:46 50.416707 -99.306752 32 29159ft 450kts
14-May-16 16:47 50.513179 -99.183043 32 29155ft 450kts
14-May-16 16:48 50.608318 -99.061010 32 29167ft 451kts
14-May-16 16:49 50.705252 -98.936536 32 29156ft 453kts
14-May-16 16:50 50.802115 -98.810843 33 29147ft 454kts
14-May-16 16:51 50.899316 -98.683813 33 29146ft 454kts
14-May-16 16:52 50.996054 -98.556297 33 29146ft 454kts
14-May-16 16:53 51.092462 -98.428441 33 29145ft 453kts
14-May-16 16:54 51.188915 -98.299854 33 29145ft 454kts
14-May-16 16:55 51.285182 -98.170761 33 29144ft 452kts
14-May-16 16:56 51.381258 -98.041211 33 29144ft 452kts
14-May-16 16:57 51.460831 -97.933366 33 29143ft 452kts
14-May-16 16:58 51.556761 -97.803105 34 29141ft 453kts
14-May-16 16:59 51.652924 -97.673255 34 29149ft 453kts
14-May-16 17:00 51.748843 -97.541774 34 29149ft 453kts
14-May-16 17:01 51.844070 -97.409670 34 29148ft 454kts
14-May-16 17:02 51.939281 -97.276841 34 29118ft 452kts
14-May-16 17:03 52.033782 -97.144334 34 29100ft 451kts
14-May-16 17:04 52.128475 -97.010858 34 29103ft 451kts
14-May-16 17:05 52.222612 -96.877459 35 29087ft 451kts
14-May-16 17:06 52.317284 -96.743407 35 29086ft 451kts
14-May-16 17:07 52.411471 -96.608124 35 29086ft 452kts
14-May-16 17:08 52.505389 -96.471799 35 29085ft 452kts
14-May-16 17:09 52.598937 -96.336150 35 29077ft 450kts
14-May-16 17:10 52.692589 -96.200536 35 29059ft 449kts
14-May-16 17:11 52.792666 -96.053537 37 29057ft 451kts
14-May-16 17:12 52.885999 -95.915148 38 29056ft 453kts
14-May-16 17:13 52.979576 -95.776226 38 29054ft 453kts
14-May-16 17:14 53.073057 -95.636524 39 29054ft 453kts
14-May-16 17:15 53.165986 -95.496281 39 29053ft 453kts
14-May-16 17:16 53.259048 -95.354874 39 29053ft 453kts
14-May-16 17:17 53.351896 -95.212943 39 29053ft 453kts
14-May-16 17:18 53.444579 -95.070398 39 29052ft 453kts
14-May-16 17:19 53.537420 -94.926719 39 29052ft 453kts
14-May-16 17:20 53.630312 -94.784141 39 29056ft 453kts
14-May-16 17:21 53.723147 -94.640659 39 29056ft 454kts
14-May-16 17:22 53.814998 -94.495913 39 29056ft 454kts
14-May-16 17:23 53.892186 -94.373391 39 29055ft 454kts
14-May-16 17:24 53.984017 -94.226856 39 29055ft 454kts
14-May-16 17:25 54.075685 -94.079678 39 29055ft 454kts
14-May-16 17:26 54.167187 -93.931822 39 29054ft 454kts
14-May-16 17:27 54.258778 -93.783589 40 29052ft 454kts
14-May-16 17:28 54.350230 -93.634678 40 29052ft 455kts
14-May-16 17:29 54.437633 -93.490801 40 29044ft 455kts
14-May-16 17:30 54.528175 -93.340658 40 29040ft 455kts
14-May-16 17:31 54.619205 -93.190009 40 29043ft 454kts
14-May-16 17:32 54.709921 -93.039103 40 29039ft 454kts
14-May-16 17:33 54.800260 -92.886564 41 29038ft 455kts
14-May-16 17:34 54.890545 -92.733969 41 29036ft 455kts
14-May-16 17:35 54.980483 -92.580418 41 29036ft 455kts
14-May-16 17:36 55.070149 -92.425788 41 29036ft 455kts
14-May-16 17:37 55.159666 -92.270334 41 29036ft 455kts
14-May-16 17:38 55.248910 -92.114348 41 29035ft 455kts
14-May-16 17:39 55.338315 -91.957035 41 29035ft 455kts
14-May-16 17:40 55.427284 -91.800045 41 29033ft 456kts
14-May-16 17:41 55.516515 -91.641929 42 29033ft 456kts
14-May-16 17:42 55.605380 -91.483522 41 29039ft 456kts
14-May-16 17:43 55.694458 -91.324148 42 29038ft 456kts
14-May-16 17:44 55.782864 -91.163411 42 29036ft 457kts
14-May-16 17:45 55.871618 -91.000644 42 29011ft 464kts
14-May-16 17:46 55.961499 -90.834950 42 28999ft 466kts
14-May-16 17:47 56.051221 -90.669408 42 28999ft 466kts
14-May-16 17:48 56.140766 -90.501974 43 28999ft 466kts
14-May-16 17:49 56.230084 -90.333476 43 28998ft 466kts
14-May-16 17:50 56.318899 -90.164954 43 28998ft 467kts
14-May-16 17:51 56.408056 -89.995361 42 28998ft 467kts
14-May-16 17:52 56.496583 -89.824214 43 28996ft 467kts
14-May-16 17:53 56.585321 -89.653119 43 29002ft 467kts
14-May-16 17:54 56.674009 -89.482343 43 29002ft 467kts
14-May-16 17:55 56.762203 -89.309146 43 29001ft 467kts
14-May-16 17:56 56.850001 -89.134698 43 29001ft 468kts
14-May-16 17:57 56.937596 -88.959434 43 29001ft 468kts
14-May-16 17:58 57.024035 -88.786039 44 28999ft 468kts
14-May-16 17:59 57.111600 -88.609574 44 28999ft 468kts
14-May-16 18:00 57.198652 -88.431686 44 28998ft 468kts
14-May-16 18:01 57.285404 -88.252755 44 28998ft 469kts
14-May-16 18:02 57.371923 -88.072977 44 28998ft 469kts
14-May-16 18:03 57.458190 -87.892373 45 28998ft 469kts
14-May-16 18:04 57.544704 -87.711396 45 28996ft 469kts
14-May-16 18:05 57.631329 -87.530218 45 29002ft 469kts
14-May-16 18:06 57.717392 -87.347438 45 29002ft 469kts
14-May-16 18:07 57.802799 -87.162843 45 29002ft 470kts
14-May-16 18:08 57.887957 -86.977376 45 29002ft 473kts
14-May-16 18:09 57.973482 -86.790462 46 29000ft 478kts
14-May-16 18:10 58.061332 -86.597872 47 28999ft 489kts
14-May-16 18:11 58.149124 -86.402152 47 29000ft 489kts
14-May-16 18:12 58.236523 -86.205345 47 29000ft 489kts
14-May-16 18:13 58.323420 -86.008147 47 29001ft 489kts
14-May-16 18:14 58.410605 -85.809226 48 28998ft 489kts
14-May-16 18:15 58.483021 -85.643914 48 28999ft 490kts
14-May-16 18:16 58.584332 -85.409578 49 28999ft 491kts
14-May-16 18:17 58.656940 -85.241769 49 29000ft 491kts
14-May-16 18:18 58.743178 -85.038838 49 29000ft 491kts
14-May-16 18:19 58.828573 -84.835238 50 28998ft 491kts
14-May-16 18:20 58.914459 -84.630628 50 28999ft 491kts
14-May-16 18:21 58.999663 -84.424416 50 29000ft 491kts
14-May-16 18:22 59.084358 -84.216871 50 29000ft 491kts
14-May-16 18:23 59.168736 -84.008288 50 29001ft 491kts
14-May-16 18:24 59.251258 -83.803193 51 28851ft 473kts
14-May-16 18:25 59.331880 -83.602554 51 28808ft 470kts
14-May-16 18:26 59.411837 -83.400233 51 28808ft 470kts
14-May-16 18:27 59.491331 -83.196738 51 28809ft 470kts
14-May-16 18:28 59.570305 -82.993122 51 28808ft 470kts
14-May-16 18:29 59.646972 -82.797644 52 28806ft 468kts
14-May-16 18:30 59.725228 -82.595562 52 28780ft 464kts
14-May-16 18:31 59.802709 -82.390506 52 28754ft 467kts
14-May-16 18:32 59.882655 -82.176645 52 28739ft 469kts
14-May-16 18:33 59.960017 -81.968012 52 28735ft 469kts
14-May-16 18:34 60.037139 -81.759512 53 28734ft 469kts
14-May-16 18:35 60.114339 -81.549528 53 28734ft 469kts
14-May-16 18:36 60.190795 -81.337936 53 28735ft 469kts
14-May-16 18:37 60.266831 -81.125267 53 28735ft 469kts
14-May-16 18:38 60.342566 -80.911669 53 28735ft 469kts
14-May-16 18:39 60.418472 -80.697843 54 28734ft 469kts
14-May-16 18:40 60.493843 -80.482689 54 28735ft 469kts
14-May-16 18:41 60.568209 -80.267532 54 28725ft 470kts
14-May-16 18:42 60.643745 -80.050392 54 28717ft 471kts
14-May-16 18:43 60.718202 -79.830907 55 28715ft 471kts
14-May-16 18:44 60.792715 -79.610939 55 28715ft 471kts
14-May-16 18:45 60.866530 -79.389310 55 28716ft 471kts
14-May-16 18:46 60.939476 -79.167269 55 28716ft 471kts
14-May-16 18:47 61.012304 -78.943412 55 28717ft 471kts
14-May-16 18:48 61.084630 -78.721000 56 28716ft 471kts
14-May-16 18:49 61.157195 -78.495778 56 28716ft 471kts
14-May-16 18:50 61.228729 -78.269689 56 28717ft 471kts
14-May-16 18:51 61.300033 -78.041715 56 28717ft 471kts
14-May-16 18:52 61.371093 -77.812976 57 28716ft 471kts
14-May-16 18:53 61.442387 -77.583658 57 28716ft 471kts
14-May-16 18:54 61.512802 -77.352663 57 28717ft 471kts
14-May-16 18:55 61.582663 -77.121441 57 28716ft 471kts
14-May-16 18:56 61.652955 -76.889349 58 28716ft 471kts
14-May-16 18:57 61.723660 -76.653288 60 28715ft 485kts
14-May-16 18:58 61.782318 -76.453969 63 28713ft 478kts
14-May-16 18:59 61.862960 -76.174203 63 28714ft 478kts
14-May-16 19:00 61.919986 -75.974312 63 28715ft 478kts
14-May-16 19:01 61.988617 -75.733645 63 28751ft 476kts
14-May-16 19:02 62.056947 -75.492336 64 28780ft 475kts
14-May-16 19:03 62.123927 -75.250674 64 28781ft 475kts
14-May-16 19:04 62.190513 -75.007266 64 28782ft 475kts
14-May-16 19:05 62.256735 -74.764219 64 28783ft 474kts
14-May-16 19:06 62.323093 -74.519949 65 28784ft 474kts
14-May-16 19:07 62.388391 -74.274147 65 28784ft 474kts
14-May-16 19:08 62.453083 -74.027083 65 28785ft 474kts
14-May-16 19:09 62.517334 -73.780355 65 28786ft 473kts
14-May-16 19:10 62.582209 -73.532737 65 28776ft 473kts
14-May-16 19:11 62.646681 -73.284207 65 28776ft 473kts
14-May-16 19:12 62.709613 -73.033622 66 28776ft 472kts
14-May-16 19:13 62.771909 -72.783002 66 28777ft 472kts
14-May-16 19:14 62.834524 -72.531219 66 28951ft 473kts
14-May-16 19:15 62.896062 -72.277863 67 29053ft 473kts
14-May-16 19:16 62.957117 -72.022487 67 29054ft 473kts
14-May-16 19:17 63.017958 -71.766687 67 29055ft 472kts
14-May-16 19:18 63.078650 -71.511000 67 29055ft 472kts
14-May-16 19:19 63.138322 -71.253322 68 29056ft 472kts
14-May-16 19:20 63.197133 -70.995311 68 29056ft 472kts
14-May-16 19:21 63.256620 -70.733671 68 29058ft 471kts
14-May-16 19:22 63.315339 -70.473838 68 29058ft 471kts
14-May-16 19:23 63.372922 -70.212453 69 29059ft 471kts
14-May-16 19:24 63.429897 -69.950023 69 29059ft 471kts
14-May-16 19:25 63.486862 -69.688023 69 29060ft 470kts
14-May-16 19:26 63.543447 -69.424421 69 29061ft 470kts
14-May-16 19:27 63.599767 -69.160181 69 29050ft 470kts
14-May-16 19:28 63.655429 -68.894108 70 29050ft 470kts
14-May-16 19:29 63.708213 -68.639278 70 29059ft 469kts
14-May-16 19:30 63.761411 -68.371250 72 29070ft 468kts
14-May-16 19:31 63.810580 -68.099686 73 29070ft 467kts
14-May-16 19:32 63.858944 -67.827532 73 29071ft 467kts
14-May-16 19:33 63.908004 -67.555351 73 29072ft 467kts
14-May-16 19:34 63.955844 -67.282444 73 29072ft 466kts
14-May-16 19:35 64.002865 -67.007937 73 29072ft 466kts
14-May-16 19:36 64.049778 -66.732948 74 29074ft 466kts
14-May-16 19:37 64.096432 -66.458282 74 29074ft 466kts
14-May-16 19:38 64.141961 -66.181571 74 29074ft 465kts
14-May-16 19:39 64.186795 -65.903825 74 29074ft 465kts
14-May-16 19:40 64.231828 -65.626756 75 29076ft 465kts
14-May-16 19:41 64.276184 -65.347784 75 29076ft 465kts
14-May-16 19:42 64.319152 -65.069413 75 29205ft 461kts
14-May-16 19:43 64.354533 -64.837200 76 29260ft 460kts
14-May-16 19:44 64.404350 -64.512803 76 29260ft 460kts
14-May-16 19:45 64.438877 -64.280510 76 29261ft 460kts
14-May-16 19:46 64.486298 -63.953479 76 29261ft 460kts
14-May-16 19:47 64.520263 -63.719392 77 29262ft 460kts
14-May-16 19:48 64.560786 -63.438600 76 29250ft 460kts
14-May-16 19:49 64.601106 -63.157864 77 29251ft 459kts
14-May-16 19:50 64.639983 -62.874691 78 29252ft 459kts
14-May-16 19:51 64.679219 -62.588720 78 29252ft 459kts
14-May-16 19:52 64.716908 -62.305452 78 29252ft 458kts
14-May-16 19:53 64.753736 -62.020279 78 29252ft 458kts
14-May-16 19:54 64.790409 -61.734895 78 29254ft 458kts
14-May-16 19:55 64.826874 -61.450014 79 29254ft 458kts
14-May-16 19:56 64.862802 -61.157300 79 29254ft 458kts
14-May-16 19:57 64.897356 -60.869634 80 29255ft 457kts
14-May-16 19:58 64.932376 -60.582091 79 29255ft 457kts
14-May-16 19:59 64.966058 -60.294311 80 29255ft 457kts
14-May-16 20:00 64.998718 -60.004823 83 29254ft 455kts
14-May-16 20:01 65.012119 -59.711934 92 29256ft 447kts
14-May-16 20:02 65.018779 -59.418535 92 29256ft 447kts
14-May-16 20:03 65.026119 -59.124889 91 29256ft 448kts
14-May-16 20:04 65.033428 -58.835887 92 29256ft 448kts
14-May-16 20:05 65.041422 -58.542208 92 29256ft 448kts
14-May-16 20:06 65.048028 -58.249177 92 29242ft 449kts
14-May-16 20:07 65.053603 -57.950347 92 29096ft 460kts
14-May-16 20:08 65.059598 -57.645842 92 29001ft 466kts
14-May-16 20:09 65.065076 -57.340077 93 29000ft 465kts
14-May-16 20:10 65.069063 -57.033800 93 29000ft 465kts
14-May-16 20:11 65.072929 -56.720311 93 29001ft 465kts
14-May-16 20:12 65.076678 -56.414098 93 29000ft 465kts
14-May-16 20:13 65.078880 -56.108480 94 29000ft 464kts
14-May-16 20:14 65.080426 -55.803150 94 29000ft 464kts
14-May-16 20:15 65.082452 -55.497978 94 29001ft 464kts
14-May-16 20:16 65.083003 -55.192035 95 29000ft 464kts
14-May-16 20:16 65.082630 -54.937776 95 29000ft 464kts
14-May-16 20:18 65.082577 -54.626054 95 29001ft 464kts
14-May-16 20:19 65.081774 -54.321453 95 29000ft 463kts
14-May-16 20:20 65.079562 -54.015822 96 29000ft 463kts
14-May-16 20:21 65.077277 -53.710185 96 29001ft 463kts
14-May-16 20:22 65.074889 -53.405951 96 29000ft 463kts
14-May-16 20:23 65.070939 -53.100796 96 29000ft 463kts
14-May-16 20:24 65.066421 -52.796741 97 29000ft 463kts
14-May-16 20:25 65.062382 -52.492902 97 29000ft 463kts
14-May-16 20:26 65.056809 -52.189597 97 29000ft 462kts
14-May-16 20:27 65.050249 -51.886150 98 29000ft 462kts
14-May-16 20:28 65.044289 -51.582931 98 29000ft 462kts
14-May-16 20:29 65.037441 -51.290887 98 29000ft 462kts
14-May-16 20:30 65.029104 -50.988448 98 29000ft 462kts
14-May-16 20:31 65.020969 -50.686643 98 29000ft 462kts
14-May-16 20:32 65.012363 -50.383974 99 29000ft 462kts
14-May-16 20:33 65.002301 -50.081617 99 28999ft 462kts
14-May-16 20:34 65.003072 -49.777767 90 29000ft 468kts
14-May-16 20:35 65.015707 -49.471019 90 29000ft 469kts
14-May-16 20:36 65.025432 -49.164025 91 29000ft 468kts
14-May-16 20:37 65.032951 -48.860351 92 29000ft 467kts
14-May-16 20:38 65.041312 -48.544956 92 29000ft 468kts
14-May-16 20:39 65.048254 -48.238583 92 29000ft 467kts
14-May-16 20:40 65.054004 -47.931898 92 29000ft 468kts
14-May-16 20:41 65.060092 -47.624520 92 29000ft 467kts
14-May-16 20:42 65.065410 -47.317556 93 29000ft 467kts
14-May-16 20:43 65.069316 -47.010992 93 28990ft 468kts
14-May-16 20:44 65.073155 -46.703148 93 28967ft 468kts
14-May-16 20:45 65.076839 -46.396112 94 28967ft 468kts
14-May-16 20:46 65.078990 -46.088071 94 28966ft 468kts
14-May-16 20:47 65.080586 -45.780113 94 28966ft 468kts
14-May-16 20:48 65.082553 -45.472192 94 28967ft 468kts
14-May-16 20:49 65.082982 -45.164721 95 28967ft 467kts
14-May-16 20:50 65.082442 -44.857937 95 28967ft 467kts
14-May-16 20:51 65.082521 -44.550228 95 28967ft 467kts
14-May-16 20:52 65.081302 -44.242607 96 28967ft 467kts
14-May-16 20:53 65.078854 -43.935104 96 28966ft 467kts
14-May-16 20:54 65.076772 -43.628734 96 28967ft 467kts
14-May-16 20:55 65.073926 -43.321444 96 28967ft 467kts
14-May-16 20:56 65.069653 -43.014404 96 28966ft 467kts
14-May-16 20:57 65.065331 -42.708365 97 28967ft 467kts
14-May-16 20:58 65.060867 -42.401519 97 28966ft 466kts
14-May-16 20:59 65.054852 -42.096062 97 28980ft 466kts
14-May-16 21:00 65.048306 -41.791111 98 29000ft 465kts
14-May-16 21:01 65.042222 -41.487057 98 29000ft 465kts
14-May-16 21:02 65.035879 -41.231868 98 29000ft 465kts
14-May-16 21:03 65.025864 -40.876070 99 29000ft 464kts
14-May-16 21:04 65.019337 -40.624292 99 29000ft 465kts
14-May-16 21:05 65.010260 -40.318606 99 29000ft 464kts
14-May-16 21:06 65.000024 -40.014479 100 28999ft 464kts
14-May-16 21:07 64.982644 -39.716321 104 29000ft 461kts
14-May-16 21:08 64.962074 -39.417678 104 28999ft 461kts
14-May-16 21:09 64.940978 -39.119376 104 28999ft 461kts
14-May-16 21:10 64.919988 -38.827757 104 28998ft 461kts
14-May-16 21:11 64.899035 -38.527659 104 28998ft 461kts
14-May-16 21:12 64.876852 -38.231633 105 28998ft 461kts
14-May-16 21:13 64.853364 -37.933890 105 28998ft 461kts
14-May-16 21:14 64.830056 -37.632772 105 28998ft 461kts
14-May-16 21:15 64.806400 -37.337261 106 28997ft 460kts
14-May-16 21:16 64.781503 -37.044563 106 28997ft 460kts
14-May-16 21:17 64.756326 -36.751202 106 28997ft 460kts
14-May-16 21:18 64.731318 -36.457092 106 28996ft 460kts
14-May-16 21:19 64.704806 -36.164825 107 28996ft 460kts
14-May-16 21:20 64.677402 -35.872846 107 28996ft 460kts
14-May-16 21:21 64.650730 -35.580806 107 28996ft 460kts
14-May-16 21:22 64.622945 -35.290513 108 28995ft 460kts
14-May-16 21:23 64.593640 -34.998355 108 28995ft 460kts
14-May-16 21:24 64.564757 -34.709492 108 28995ft 460kts
14-May-16 21:25 64.535812 -34.421532 108 28994ft 460kts
14-May-16 21:26 64.505202 -34.133438 109 28994ft 460kts
14-May-16 21:27 64.474060 -33.847398 109 28993ft 459kts
14-May-16 21:28 64.443571 -33.560709 109 29005ft 459kts
14-May-16 21:29 64.411742 -33.285795 110 29004ft 459kts
14-May-16 21:30 64.378481 -33.001812 109 29004ft 459kts
14-May-16 21:31 64.345651 -32.716499 109 29004ft 459kts
14-May-16 21:32 64.312862 -32.432572 110 29003ft 459kts
14-May-16 21:33 64.278448 -32.149489 110 29003ft 459kts
14-May-16 21:34 64.243439 -31.867890 111 29003ft 459kts
14-May-16 21:35 64.209478 -31.588308 111 29002ft 459kts
14-May-16 21:35 64.178705 -31.344247 111 29002ft 459kts
14-May-16 21:37 64.136037 -31.018322 111 29001ft 459kts
14-May-16 21:38 64.105413 -30.785320 111 29001ft 459kts
14-May-16 21:39 64.069055 -30.505793 112 29000ft 459kts
14-May-16 21:40 64.031199 -30.228935 112 29000ft 459kts
14-May-16 21:41 63.992384 -29.951740 113 29009ft 456kts
14-May-16 21:42 63.951479 -29.684943 114 29152ft 447kts
14-May-16 21:43 63.909701 -29.419369 115 29154ft 447kts
14-May-16 21:44 63.867109 -29.154975 115 29153ft 447kts
14-May-16 21:45 63.824316 -28.893368 116 29153ft 447kts
14-May-16 21:46 63.782197 -28.631276 115 29152ft 447kts
14-May-16 21:47 63.738974 -28.369300 115 29152ft 447kts
14-May-16 21:48 63.694444 -28.108038 116 29151ft 447kts
14-May-16 21:49 63.649455 -27.847451 116 29151ft 446kts
14-May-16 21:50 63.605711 -27.589013 116 29150ft 447kts
14-May-16 21:51 63.560352 -27.329998 116 29150ft 446kts
14-May-16 21:52 63.513635 -27.070465 117 29149ft 446kts
14-May-16 21:53 63.467490 -26.816143 117 29148ft 446kts
14-May-16 21:54 63.421092 -26.559504 117 29160ft 446kts
14-May-16 21:55 63.372940 -26.305164 118 29159ft 446kts
14-May-16 21:56 63.324487 -26.050412 117 29159ft 446kts
14-May-16 21:57 63.274650 -25.788384 118 29158ft 446kts
14-May-16 21:58 63.227205 -25.536450 118 29158ft 446kts
14-May-16 21:59 63.178014 -25.284597 118 29157ft 446kts
14-May-16 22:00 63.128060 -25.033991 118 29157ft 446kts
14-May-16 22:01 63.078117 -24.784075 118 29156ft 446kts
14-May-16 22:02 63.028541 -24.533797 119 29155ft 446kts
14-May-16 22:03 62.977608 -24.285619 119 29155ft 446kts
14-May-16 22:04 62.926074 -24.039261 119 29154ft 446kts
14-May-16 22:05 62.874853 -23.795224 119 29153ft 446kts
14-May-16 22:06 62.823642 -23.548637 120 29153ft 446kts
14-May-16 22:07 62.771027 -23.303896 120 29152ft 445kts
14-May-16 22:08 62.717653 -23.060347 120 29152ft 446kts
14-May-16 22:09 62.664120 -22.817467 120 29150ft 445kts
14-May-16 22:10 62.611267 -22.574326 120 29150ft 445kts
14-May-16 22:11 62.557197 -22.333756 121 29150ft 445kts
14-May-16 22:12 62.502531 -22.095341 121 29149ft 445kts
14-May-16 22:13 62.447132 -21.855897 121 29150ft 446kts
14-May-16 22:14 62.391821 -21.617486 122 29159ft 446kts
14-May-16 22:15 62.335563 -21.379580 122 29159ft 446kts
14-May-16 22:16 62.278689 -21.141838 122 29158ft 446kts
14-May-16 22:17 62.221688 -20.905913 122 29158ft 446kts
14-May-16 22:18 62.165360 -20.669524 122 29157ft 446kts
14-May-16 22:19 62.108104 -20.434605 123 29156ft 446kts
14-May-16 22:19 62.059819 -20.241169 123 29156ft 446kts
14-May-16 22:20 62.001604 -20.008249 122 29155ft 446kts
14-May-16 22:22 61.944798 -19.774039 122 29154ft 447kts
14-May-16 22:23 61.888973 -19.539086 122 29154ft 446kts
14-May-16 22:24 61.832221 -19.307687 122 29153ft 446kts
14-May-16 22:25 61.774387 -19.075974 122 29153ft 446kts
14-May-16 22:26 61.717055 -18.848098 123 29130ft 445kts
14-May-16 22:27 61.659986 -18.617274 123 29103ft 444kts
14-May-16 22:28 61.601877 -18.388881 123 29070ft 443kts
14-May-16 22:29 61.545184 -18.170855 123 29069ft 443kts
14-May-16 22:30 61.485904 -17.945067 123 29068ft 443kts
14-May-16 22:31 61.427061 -17.719711 124 29078ft 443kts
14-May-16 22:32 61.367581 -17.497561 124 29078ft 443kts
14-May-16 22:33 61.306249 -17.271390 124 29078ft 443kts
14-May-16 22:34 61.245477 -17.048885 124 29077ft 443kts
14-May-16 22:35 61.184658 -16.827309 124 29075ft 443kts
14-May-16 22:36 61.124482 -16.605032 124 29075ft 443kts
14-May-16 22:37 61.063075 -16.384783 125 29075ft 443kts
14-May-16 22:38 61.000902 -16.165912 125 29074ft 443kts
14-May-16 22:39 60.938786 -15.949246 125 29074ft 443kts
14-May-16 22:40 60.876807 -15.731180 125 29072ft 443kts
14-May-16 22:41 60.814556 -15.513677 126 29072ft 443kts
14-May-16 22:42 60.751144 -15.298194 126 29071ft 443kts
14-May-16 22:43 60.687220 -15.083555 126 29071ft 443kts
14-May-16 22:44 60.623017 -14.869722 126 29070ft 442kts
14-May-16 22:45 60.559734 -14.655244 126 29069ft 443kts
14-May-16 22:46 60.496085 -14.444679 127 29068ft 442kts
14-May-16 22:47 60.431353 -14.235536 127 29080ft 442kts
14-May-16 22:48 60.365006 -14.026533 127 29079ft 442kts
14-May-16 22:49 60.299214 -13.817267 127 29077ft 442kts
14-May-16 22:50 60.234316 -13.607031 127 29077ft 442kts
14-May-16 22:51 60.168202 -13.398950 127 29076ft 442kts
14-May-16 22:52 60.101403 -13.192225 127 29075ft 442kts
14-May-16 22:53 60.034500 -12.986877 127 29075ft 442kts
14-May-16 22:54 59.967615 -12.780999 128 29073ft 442kts
14-May-16 22:55 59.900183 -12.572841 128 29144ft 445kts
14-May-16 22:56 59.832380 -12.369444 128 29284ft 447kts
14-May-16 22:57 59.763302 -12.164765 128 29288ft 447kts
14-May-16 22:58 59.693231 -11.958839 128 29287ft 447kts
14-May-16 22:59 59.624258 -11.754799 128 29285ft 447kts
14-May-16 23:00 59.555218 -11.551362 129 29285ft 447kts
14-May-16 23:01 59.485018 -11.350071 129 29284ft 446kts
14-May-16 23:02 59.414423 -11.150852 130 29295ft 446kts
14-May-16 23:03 59.342897 -10.952356 129 29295ft 446kts
14-May-16 23:04 59.272392 -10.752622 129 29293ft 447kts
14-May-16 23:05 59.201846 -10.553404 130 29292ft 446kts
14-May-16 23:06 59.070937 -10.194884 130 29291ft 446kts
14-May-16 23:08 58.999255 -9.998406 128 29290ft 448kts
14-May-16 23:09 58.937002 -9.788399 123 29289ft 452kts
14-May-16 23:10 58.877836 -9.574321 124 29283ft 456kts
14-May-16 23:11 58.812560 -9.354535 119 29288ft 465kts
14-May-16 23:12 58.748706 -9.139115 119 29290ft 466kts
14-May-16 23:13 58.684133 -8.923569 119 29290ft 466kts
14-May-16 23:14 58.620142 -8.708042 119 29290ft 466kts
14-May-16 23:15 58.555558 -8.493277 120 29290ft 466kts
14-May-16 23:16 58.490009 -8.280809 120 29290ft 466kts
14-May-16 23:17 58.423638 -8.068663 121 29290ft 466kts
14-May-16 23:18 58.356557 -7.858967 121 29290ft 466kts
14-May-16 23:19 58.290890 -7.647228 120 29290ft 466kts
14-May-16 23:20 58.224118 -7.436120 121 29290ft 466kts
14-May-16 23:21 58.157216 -7.228934 121 29290ft 466kts
14-May-16 23:22 58.089516 -7.020992 121 29257ft 465kts
14-May-16 23:23 58.021828 -6.813509 121 29244ft 465kts
14-May-16 23:24 57.954732 -6.605761 121 29236ft 465kts
14-May-16 23:25 57.886520 -6.400593 122 29236ft 465kts
14-May-16 23:26 57.817501 -6.196024 122 29236ft 465kts
14-May-16 23:27 57.748158 -5.991933 122 29236ft 465kts
14-May-16 23:28 57.679271 -5.788849 122 29236ft 465kts
14-May-16 23:29 57.613084 -5.592943 122 29236ft 465kts
14-May-16 23:30 57.543601 -5.393213 123 29236ft 466kts
14-May-16 23:31 57.472798 -5.191978 123 29236ft 465kts
14-May-16 23:32 57.401971 -4.993486 123 29236ft 465kts
14-May-16 23:33 57.331287 -4.795131 123 29236ft 465kts
14-May-16 23:34 57.260427 -4.595821 123 29236ft 465kts
14-May-16 23:35 57.188665 -4.397707 123 29236ft 465kts
14-May-16 23:36 57.116551 -4.200924 123 29236ft 465kts
14-May-16 23:37 57.044249 -4.005144 123 29236ft 465kts
14-May-16 23:38 56.974450 -3.816382 124 29236ft 465kts
14-May-16 23:39 56.904842 -3.626146 124 29236ft 465kts
14-May-16 23:40 56.831769 -3.431914 124 29236ft 464kts
14-May-16 23:41 56.758281 -3.239370 124 29236ft 463kts
14-May-16 23:42 56.684855 -3.048220 124 29236ft 463kts
14-May-16 23:43 56.611238 -2.857673 125 29236ft 463kts
14-May-16 23:44 56.538151 -2.665585 125 30054ft 464kts
14-May-16 23:45 56.464615 -2.477147 125 32413ft 458kts
14-May-16 23:46 56.399157 -2.313908 126 33232ft 454kts
14-May-16 23:47 56.324580 -2.129010 125 33252ft 472kts
14-May-16 23:48 56.244629 -1.928946 125 33224ft 502kts
14-May-16 23:49 56.162717 -1.732375 129 33218ft 502kts
14-May-16 23:50 56.073259 -1.540431 130 33209ft 503kts
14-May-16 23:51 55.984054 -1.350675 129 33209ft 503kts
14-May-16 23:52 55.894528 -1.159652 129 33209ft 503kts
14-May-16 23:53 55.805240 -0.970371 129 33209ft 503kts
14-May-16 23:54 55.716028 -0.780858 129 33209ft 503kts
14-May-16 23:55 55.626779 -0.591002 130 33209ft 503kts
14-May-16 23:56 55.536205 -0.403371 130 33209ft 503kts
14-May-16 23:57 55.445235 -0.217008 130 33221ft 502kts
14-May-16 23:58 55.353420 -0.032605 131 33238ft 501kts
14-May-16 23:59 55.261384 0.152570 130 33238ft 501kts
15-May-16 00:00 55.171369 0.337658 130 33236ft 502kts
15-May-16 00:01 55.080287 0.520396 131 33236ft 502kts
15-May-16 00:02 54.987514 0.703326 131 33236ft 502kts
15-May-16 00:03 54.895772 0.883124 131 33236ft 502kts
15-May-16 00:04 54.804357 1.061121 131 33236ft 502kts
15-May-16 00:05 54.712462 1.241434 131 33236ft 502kts
15-May-16 00:06 54.619962 1.421887 132 33236ft 503kts
15-May-16 00:07 54.526596 1.599577 132 33236ft 503kts
15-May-16 00:08 54.434266 1.773774 132 33236ft 503kts
15-May-16 00:09 54.341612 1.945206 132 33236ft 503kts
15-May-16 00:10 54.248415 2.118074 132 33236ft 503kts
15-May-16 00:11 54.154526 2.294148 132 33236ft 503kts
15-May-16 00:12 54.059617 2.468816 132 33236ft 503kts
15-May-16 00:13 53.964554 2.642862 132 33236ft 503kts
15-May-16 00:14 53.869288 2.816132 132 33236ft 503kts
15-May-16 00:15 53.773802 2.988686 132 33199ft 504kts
15-May-16 00:16 53.678570 3.160823 132 33129ft 504kts
15-May-16 00:17 53.576178 3.321693 140 33129ft 504kts
15-May-16 00:18 53.467322 3.469486 140 33128ft 504kts
15-May-16 00:19 53.351995 3.586980 163 33136ft 504kts
15-May-16 00:20 53.214601 3.621964 174 33128ft 504kts
15-May-16 00:21 53.076037 3.653367 170 33128ft 504kts
15-May-16 00:22 52.938513 3.696314 169 33128ft 504kts
15-May-16 00:23 52.800691 3.739620 160 33126ft 504kts
15-May-16 00:24 52.702014 3.889360 116 33161ft 504kts
15-May-16 00:25 52.649788 4.101874 113 33131ft 504kts
15-May-16 00:26 52.590135 4.301939 118 33136ft 504kts
15-May-16 00:27 52.525390 4.500795 118 33145ft 503kts
15-May-16 00:28 52.460325 4.703400 117 33155ft 503kts
15-May-16 00:29 52.400377 4.887436 118 33155ft 503kts
15-May-16 00:30 52.338436 5.076708 119 33154ft 504kts
15-May-16 00:31 52.251072 5.250767 135 33155ft 504kts
15-May-16 00:32 52.165383 5.428357 123 33141ft 503kts
15-May-16 00:33 52.088886 5.616291 125 33129ft 502kts
15-May-16 00:34 52.001791 5.790349 132 33129ft 502kts
15-May-16 00:35 51.907417 5.959381 130 33131ft 503kts
15-May-16 00:35 51.833124 6.100424 131 33137ft 503kts
15-May-16 00:37 51.725939 6.297890 131 33155ft 505kts
15-May-16 00:37 51.648679 6.437636 132 33155ft 504kts
15-May-16 00:38 51.556184 6.604458 131 33155ft 504kts
15-May-16 00:40 51.464297 6.769334 131 33155ft 505kts
15-May-16 00:41 51.368532 6.942153 129 33155ft 505kts
15-May-16 00:42 51.285253 7.112577 129 33153ft 504kts
15-May-16 00:43 51.184303 7.232681 158 31913ft 482kts
15-May-16 00:44 51.070653 7.306837 150 29868ft 441kts
15-May-16 00:45 50.973886 7.407347 146 27940ft 405kts
15-May-16 00:46 50.945280 7.437009 147 27369ft 394kts
15-May-16 00:47 50.910366 7.471703 148 26716ft 397kts
15-May-16 00:48 50.819595 7.559361 148 24980ft 378kts
15-May-16 00:49 50.727929 7.633376 157 23319ft 368kts
15-May-16 00:50 50.635387 7.692881 157 21703ft 358kts
15-May-16 00:51 50.545500 7.751747 157 20128ft 350kts
15-May-16 00:52 50.460226 7.818594 137 18566ft 341kts
15-May-16 00:53 50.417439 7.943167 106 17094ft 334kts
15-May-16 00:54 50.394525 8.081962 103 15599ft 326kts
15-May-16 00:55 50.374544 8.216801 103 14156ft 320kts
15-May-16 00:56 50.354392 8.350356 103 12729ft 314kts
15-May-16 00:57 50.334223 8.479411 103 11352ft 308kts
15-May-16 00:58 50.315332 8.599165 103 10327ft 270kts
15-May-16 00:59 50.298426 8.705975 103 9087ft 249kts
15-May-16 01:00 50.282246 8.803684 113 7888ft 230kts
15-May-16 01:01 50.237308 8.863069 151 6811ft 206kts
15-May-16 01:02 50.186502 8.897918 159 5826ft 203kts
15-May-16 01:03 50.135575 8.907022 223 4761ft 192kts
15-May-16 01:03 50.111200 8.857689 242 3932ft 167kts
15-May-16 01:04 50.092417 8.796341 246 2790ft 151kts
15-May-16 01:06 50.076800 8.739408 247 2410ft 140kts
15-May-16 01:07 50.063465 8.685092 249 1702ft 137kts
15-May-16 01:08 50.050520 8.630800 248 959ft 136kts
15-May-16 01:09 50.037988 8.578355 250 370ft 118kts
15-May-16 01:10 50.034256 8.561114 279 369ft 18kts
15-May-16 01:11 50.035118 8.555294 324 369ft 11kts
15-May-16 01:12 50.039186 8.554868 23 369ft 8kts
15-May-16 01:13 50.040816 8.560690 44 369ft 12kts
15-May-16 01:14 50.044672 8.559288 14 369ft 12kts
15-May-16 01:15 50.046461 8.561973 346 369ft 6kts
15-May-16 01:16 50.047013 8.561612 338 369ft 0kts
15-May-16 01:17 50.047013 8.561612 338 369ft 0kts
15-May-16 01:18 50.047013 8.561612 338 369ft 0kts

Navigation Log

Ident Type
Flight plan parsing failed, navigation log unavailable